createdAt,value
2022-09-28T00:02:58.601Z,99653.81
2022-09-28T00:07:58.058Z,99656.47
2022-09-28T00:12:56.825Z,99654.66
2022-09-28T00:17:55.520Z,99648.06
2022-09-28T00:22:55.612Z,99650.09
2022-09-28T00:27:54.412Z,99646.00
2022-09-28T00:32:53.226Z,99637.09
2022-09-28T00:37:52.282Z,99634.69
2022-09-28T00:42:52.388Z,99638.84
2022-09-28T00:47:56.805Z,99633.25
2022-09-28T00:52:59.129Z,99631.09
2022-09-28T00:58:04.553Z,99636.81
2022-09-28T01:03:05.151Z,99633.31
2022-09-28T01:08:05.749Z,99636.81
2022-09-28T01:13:06.096Z,99627.84
2022-09-28T01:18:14.541Z,99626.31
2022-09-28T01:23:59.762Z,99629.94
2022-09-28T01:29:06.264Z,99636.25
2022-09-28T01:34:12.605Z,99643.25
2022-09-28T01:39:14.986Z,99641.59
2022-09-28T01:44:18.448Z,99641.34
2022-09-28T01:49:21.312Z,99643.34
2022-09-28T01:54:26.898Z,99650.66
2022-09-28T01:59:31.047Z,99657.94
2022-09-28T02:04:35.217Z,99656.81
2022-09-28T02:09:40.263Z,99659.47
2022-09-28T02:14:45.171Z,99676.09
2022-09-28T02:19:45.135Z,99684.91
2022-09-28T02:24:52.960Z,99689.88
2022-09-28T02:29:57.509Z,99692.66
2022-09-28T02:34:56.842Z,99692.97
2022-09-28T02:39:55.673Z,99694.25
2022-09-28T02:45:09.178Z,99692.81
2022-09-28T02:50:17.615Z,99701.06
2022-09-28T02:55:26.390Z,99697.63
2022-09-28T03:00:28.090Z,99712.19
2022-09-28T03:05:33.415Z,99713.47
2022-09-28T03:10:40.095Z,99724.38
2022-09-28T03:15:41.013Z,99728.00
2022-09-28T03:20:40.705Z,99729.56
2022-09-28T03:25:39.478Z,99729.72
2022-09-28T03:30:39.752Z,99736.88
2022-09-28T03:35:38.507Z,99730.16
2022-09-28T03:40:37.476Z,99725.97
2022-09-28T03:45:36.441Z,99734.53
2022-09-28T03:50:36.615Z,99728.94
2022-09-28T03:55:35.467Z,99739.03
2022-09-28T04:00:34.575Z,99749.78
2022-09-28T04:05:33.475Z,99756.25
2022-09-28T04:10:33.727Z,99744.63
2022-09-28T04:15:32.695Z,99749.41
2022-09-28T04:20:31.641Z,99755.56
2022-09-28T04:25:37.749Z,99759.88
2022-09-28T04:30:36.882Z,99751.06
2022-09-28T04:35:35.906Z,99759.72
2022-09-28T04:40:34.749Z,99753.72
2022-09-28T04:45:35.158Z,99753.72
2022-09-28T04:50:39.698Z,99760.72
2022-09-28T04:55:46.733Z,99756.25
2022-09-28T05:00:47.046Z,99758.47
2022-09-28T05:06:18.619Z,99767.44
2022-09-28T05:11:21.508Z,99771.63
2022-09-28T05:16:21.665Z,99769.50
2022-09-28T05:21:39.030Z,99758.59
2022-09-28T05:26:38.001Z,99760.25
2022-09-28T05:31:40.289Z,99766.41
2022-09-28T05:36:40.072Z,99785.06
2022-09-28T05:41:39.522Z,99779.84
2022-09-28T05:46:39.737Z,99787.38
2022-09-28T05:51:41.110Z,99783.63
2022-09-28T05:56:40.966Z,99776.75
2022-09-28T06:01:42.651Z,99770.44
2022-09-28T06:06:43.234Z,99780.19
2022-09-28T06:11:42.486Z,99795.34
2022-09-28T06:16:52.396Z,99815.53
2022-09-28T06:21:51.212Z,99805.31
2022-09-28T06:26:49.981Z,99808.06
2022-09-28T06:31:52.631Z,99798.47
2022-09-28T06:36:51.725Z,99801.47
2022-09-28T06:41:50.799Z,99819.13
2022-09-28T06:46:53.584Z,99831.06
2022-09-28T06:51:52.447Z,99824.38
2022-09-28T06:56:54.631Z,99841.22
2022-09-28T07:01:55.482Z,99835.88
2022-09-28T07:07:13.076Z,99827.72
2022-09-28T07:12:36.384Z,99836.94
2022-09-28T07:17:58.179Z,99849.81
2022-09-28T07:23:15.611Z,99846.09
2022-09-28T07:28:40.547Z,99851.59
2022-09-28T07:34:03.849Z,99846.91
2022-09-28T07:39:11.760Z,99842.38
2022-09-28T07:44:11.415Z,99845.84
2022-09-28T07:49:13.201Z,99845.91
2022-09-28T07:54:27.614Z,99848.53
2022-09-28T07:59:43.762Z,99847.31
2022-09-28T08:05:02.489Z,99856.25
2022-09-28T08:10:01.487Z,99854.59
2022-09-28T08:15:00.319Z,99850.84
2022-09-28T08:20:27.718Z,99848.53
2022-09-28T08:25:26.705Z,99853.72
2022-09-28T08:30:26.851Z,99845.72
2022-09-28T08:35:39.511Z,99847.09
2022-09-28T08:41:00.850Z,99852.94
2022-09-28T08:46:09.788Z,99846.16
2022-09-28T08:51:49.063Z,99835.56
2022-09-28T08:56:59.522Z,99822.00
2022-09-28T09:02:03.669Z,99809.16
2022-09-28T09:07:46.332Z,99807.13
2022-09-28T09:12:57.005Z,99804.31
2022-09-28T09:18:10.726Z,99791.09
2022-09-28T09:23:25.956Z,99804.16
2022-09-28T09:28:53.317Z,99798.22
2022-09-28T09:34:29.825Z,99812.84
2022-09-28T09:40:05.633Z,99822.91
2022-09-28T09:45:55.812Z,99816.28
2022-09-28T09:51:42.926Z,99817.59
2022-09-28T09:56:48.393Z,99811.91
2022-09-28T10:02:23.424Z,99820.72
2022-09-28T10:07:43.449Z,99814.22
2022-09-28T10:12:43.065Z,99806.72
2022-09-28T10:17:43.688Z,99790.00
2022-09-28T10:23:06.188Z,99782.00
2022-09-28T10:28:08.159Z,99795.75
2022-09-28T10:33:30.631Z,99799.75
2022-09-28T10:38:31.551Z,99806.63
2022-09-28T10:43:46.551Z,99788.31
2022-09-28T10:48:54.190Z,99797.25
2022-09-28T10:54:01.585Z,99802.28
2022-09-28T10:59:48.561Z,99798.91
2022-09-28T11:05:21.274Z,99801.09
2022-09-28T11:10:23.308Z,99780.34
2022-09-28T11:15:28.572Z,99786.13
2022-09-28T11:20:36.087Z,99768.16
2022-09-28T11:25:37.603Z,99769.50
2022-09-28T11:30:46.121Z,99767.81
2022-09-28T11:36:12.667Z,99759.75
2022-09-28T11:41:26.398Z,99752.59
2022-09-28T11:46:35.120Z,99755.56
2022-09-28T11:51:44.745Z,99738.72
2022-09-28T11:56:47.289Z,99744.78
2022-09-28T12:01:52.124Z,99756.22
2022-09-28T12:07:20.562Z,99755.94
2022-09-28T12:12:25.854Z,99750.84
2022-09-28T12:17:32.894Z,99751.69
2022-09-28T12:22:39.140Z,99731.44
2022-09-28T12:27:43.106Z,99729.88
2022-09-28T12:32:48.162Z,99730.91
2022-09-28T12:38:08.838Z,99714.31
2022-09-28T12:43:33.674Z,99717.31
2022-09-28T12:49:03.049Z,99719.56
2022-09-28T12:54:25.032Z,99716.22
2022-09-28T12:59:32.197Z,99714.63
2022-09-28T13:04:51.124Z,99727.41
2022-09-28T13:10:02.788Z,99733.19
2022-09-28T13:15:17.510Z,99724.44
2022-09-28T13:20:30.313Z,99728.88
2022-09-28T13:25:36.228Z,99724.69
2022-09-28T13:30:39.924Z,99728.31
2022-09-28T13:35:44.293Z,99733.53
2022-09-28T13:41:13.166Z,99734.88
2022-09-28T13:46:22.127Z,99736.69
2022-09-28T13:51:38.859Z,99733.59
2022-09-28T13:56:50.458Z,99728.03
2022-09-28T14:01:55.925Z,99730.91
2022-09-28T14:06:57.666Z,99742.34
2022-09-28T14:12:00.110Z,99741.03
2022-09-28T14:17:48.386Z,99738.56
2022-09-28T14:23:17.068Z,99738.44
2022-09-28T14:28:35.596Z,99732.72
2022-09-28T14:33:35.131Z,99735.16
2022-09-28T14:38:55.080Z,99747.09
2022-09-28T14:44:09.392Z,99746.38
2022-09-28T14:49:41.003Z,99752.41
2022-09-28T14:54:52.511Z,99760.13
2022-09-28T14:59:52.778Z,99754.06
2022-09-28T15:04:55.305Z,99760.63
2022-09-28T15:09:55.375Z,99762.69
2022-09-28T15:14:59.252Z,99772.00
2022-09-28T15:20:23.336Z,99775.09
2022-09-28T15:25:24.996Z,99787.06
2022-09-28T15:30:28.003Z,99789.41
2022-09-28T15:35:28.471Z,99786.47
2022-09-28T15:40:32.916Z,99789.28
2022-09-28T15:45:38.348Z,99795.50
2022-09-28T15:50:38.395Z,99786.56
2022-09-28T15:55:42.842Z,99788.84
2022-09-28T16:00:43.713Z,99794.06
2022-09-28T16:05:46.315Z,99800.78
2022-09-28T16:10:59.103Z,99805.19
2022-09-28T16:16:01.393Z,99805.09
2022-09-28T16:21:30.180Z,99813.56
2022-09-28T16:26:33.924Z,99809.69
2022-09-28T16:31:35.030Z,99800.09
2022-09-28T16:36:42.858Z,99813.38
2022-09-28T16:41:44.997Z,99808.94
2022-09-28T16:46:46.849Z,99820.22
2022-09-28T16:51:48.334Z,99825.06
2022-09-28T16:56:47.239Z,99827.81
2022-09-28T17:01:47.416Z,99828.88
2022-09-28T17:06:46.365Z,99838.25
2022-09-28T17:11:45.341Z,99843.00
2022-09-28T17:17:06.935Z,99840.72
2022-09-28T17:22:04.448Z,99849.66
2022-09-28T17:27:03.537Z,99846.09
2022-09-28T17:32:02.611Z,99843.34
2022-09-28T17:37:01.488Z,99847.25
2022-09-28T17:42:01.655Z,99845.78
2022-09-28T17:47:02.192Z,99845.13
2022-09-28T17:52:01.211Z,99839.28
2022-09-28T17:57:01.416Z,99838.44
2022-09-28T18:02:02.390Z,99841.50
2022-09-28T18:07:05.133Z,99840.44
2022-09-28T18:12:06.468Z,99850.75
2022-09-28T18:17:08.177Z,99856.97
2022-09-28T18:22:08.503Z,99865.84
2022-09-28T18:27:10.811Z,99881.75
2022-09-28T18:32:10.941Z,99875.50
2022-09-28T18:37:14.251Z,99884.16
2022-09-28T18:42:15.118Z,99866.94
2022-09-28T18:47:15.363Z,99866.44
2022-09-28T18:52:14.208Z,99851.72
2022-09-28T18:57:15.514Z,99852.50
2022-09-28T19:02:14.607Z,99844.94
2022-09-28T19:07:14.240Z,99856.63
2022-09-28T19:12:20.001Z,99852.59
2022-09-28T19:17:21.840Z,99857.94
2022-09-28T19:22:22.095Z,99862.78
2022-09-28T19:27:23.237Z,99867.66
2022-09-28T19:32:22.148Z,99879.94
2022-09-28T19:37:25.210Z,99882.28
2022-09-28T19:42:25.961Z,99886.75
2022-09-28T19:47:26.718Z,99890.38
2022-09-28T19:52:26.934Z,99892.34
2022-09-28T19:57:29.345Z,99888.53
2022-09-28T20:02:28.505Z,99885.97
2022-09-28T20:07:33.798Z,99889.78
2022-09-28T20:12:36.297Z,99914.34
2022-09-28T20:17:38.038Z,99907.03
2022-09-28T20:22:39.250Z,99910.41
2022-09-28T20:27:39.992Z,99914.78
2022-09-28T20:32:39.212Z,99913.84
2022-09-28T20:37:37.978Z,99924.59
2022-09-28T20:42:39.175Z,99920.31
2022-09-28T20:47:43.478Z,99912.44
2022-09-28T20:52:43.710Z,99920.31
2022-09-28T20:57:42.558Z,99905.22
2022-09-28T21:02:41.448Z,99901.53
2022-09-28T21:07:41.952Z,99920.13
2022-09-28T21:12:40.778Z,99919.66
2022-09-28T21:17:39.557Z,99932.44
2022-09-28T21:22:38.249Z,99928.47
2022-09-28T21:27:38.515Z,99933.53
2022-09-28T21:32:37.344Z,99922.50
2022-09-28T21:37:36.055Z,99917.94
2022-09-28T21:42:34.824Z,99922.56
2022-09-28T21:47:34.921Z,99921.91
2022-09-28T21:52:33.646Z,99920.13
2022-09-28T21:57:32.312Z,99915.28
2022-09-28T22:02:32.223Z,99917.72
2022-09-28T22:07:32.339Z,99933.09
2022-09-28T22:12:31.369Z,99932.72
2022-09-28T22:17:30.149Z,99926.34
2022-09-28T22:22:32.584Z,99915.16
2022-09-28T22:27:33.060Z,99920.78
2022-09-28T22:32:31.771Z,99925.91
2022-09-28T22:37:31.808Z,99924.25
2022-09-28T22:42:32.706Z,99930.16
2022-09-28T22:47:31.414Z,99921.63
2022-09-28T22:52:30.130Z,99915.16
2022-09-28T22:57:28.836Z,99912.38
2022-09-28T23:02:28.993Z,99906.66
2022-09-28T23:07:27.769Z,99901.31
2022-09-28T23:12:26.547Z,99898.34
2022-09-28T23:17:25.239Z,99894.00
2022-09-28T23:22:25.464Z,99893.03
2022-09-28T23:27:24.269Z,99887.88
2022-09-28T23:32:22.998Z,99897.06
2022-09-28T23:37:21.747Z,99901.91
2022-09-28T23:42:23.864Z,99899.41
2022-09-28T23:47:22.582Z,99897.06
2022-09-28T23:52:21.237Z,99881.69
2022-09-28T23:57:19.928Z,99886.22
